Time;durP1;ratioP1;P1;durP2;ratioP2;P2;SDS_P1;SDS_P2;PMS_P1;PMS_P2;Temp;Humidity;BMP_temperature;BMP_pressure;BME280_temperature;BME280_humidity;BME280_pressure;Samples;Min_cycle;Max_cycle;Signal;HPM_P1;HPM_P2
2022/11/01 00:01:21;;;;;;;5.50;4.78;;;11.40;99.90;;;;;;5052600;28;20206;-69
2022/11/01 00:03:48;;;;;;;7.05;4.82;;;11.40;99.90;;;;;;5053509;28;20582;-69
2022/11/01 00:06:18;;;;;;;5.63;4.30;;;11.40;99.90;;;;;;5053077;28;20205;-69
2022/11/01 00:08:47;;;;;;;6.53;6.03;;;11.30;99.90;;;;;;5053325;28;20216;-69
2022/11/01 00:11:16;;;;;;;5.40;4.75;;;11.30;99.90;;;;;;5052658;28;20208;-69
2022/11/01 00:13:45;;;;;;;5.95;4.53;;;11.30;99.90;;;;;;5053121;28;20206;-69
2022/11/01 00:16:12;;;;;;;4.43;3.75;;;11.30;99.90;;;;;;5052897;28;20205;-69
2022/11/01 00:18:39;;;;;;;6.30;4.72;;;11.30;99.90;;;;;;5053074;28;20673;-69
2022/11/01 00:21:06;;;;;;;5.30;3.90;;;11.30;99.90;;;;;;5051771;28;20201;-69
2022/11/01 00:23:33;;;;;;;6.20;5.25;;;11.40;99.90;;;;;;5052348;28;20208;-69
2022/11/01 00:26:01;;;;;;;6.80;4.60;;;11.40;99.90;;;;;;5052715;28;20218;-69
2022/11/01 00:28:29;;;;;;;6.90;4.85;;;11.30;99.90;;;;;;5052529;28;20320;-69
2022/11/01 00:30:57;;;;;;;5.65;4.70;;;11.30;99.90;;;;;;5052580;28;20212;-69
2022/11/01 00:33:24;;;;;;;6.40;5.10;;;11.40;99.90;;;;;;5051985;28;20202;-69
2022/11/01 00:35:52;;;;;;;4.40;3.97;;;11.40;99.90;;;;;;5052737;28;20716;-69
2022/11/01 00:38:19;;;;;;;6.13;4.47;;;11.40;99.90;;;;;;5052323;28;20205;-69
2022/11/01 00:40:46;;;;;;;4.82;4.30;;;11.40;99.90;;;;;;5052434;28;20312;-69
2022/11/01 00:43:14;;;;;;;5.55;4.20;;;11.40;99.90;;;;;;5051894;28;20586;-69
2022/11/01 00:45:43;;;;;;;6.38;4.85;;;11.40;99.90;;;;;;5052366;28;20221;-69
2022/11/01 00:48:11;;;;;;;6.20;4.45;;;11.40;99.90;;;;;;5052256;28;20252;-69
2022/11/01 00:50:37;;;;;;;8.93;5.53;;;11.50;99.90;;;;;;5052388;28;20202;-68
2022/11/01 00:53:04;;;;;;;5.60;4.07;;;11.50;99.90;;;;;;5051849;28;20334;-69
2022/11/01 00:55:31;;;;;;;5.65;4.65;;;11.50;99.90;;;;;;5052147;28;20912;-69
2022/11/01 00:57:58;;;;;;;6.35;4.60;;;11.50;99.90;;;;;;5052311;28;20280;-69
2022/11/01 01:00:26;;;;;;;5.72;4.53;;;11.40;99.90;;;;;;5051881;28;20237;-69
2022/11/01 01:02:53;;;;;;;5.68;4.53;;;11.40;99.90;;;;;;5051661;28;20209;-69
2022/11/01 01:05:20;;;;;;;7.20;4.95;;;11.50;99.90;;;;;;5051831;28;20221;-69
2022/11/01 01:07:46;;;;;;;5.82;4.72;;;11.50;99.90;;;;;;5051999;28;20244;-69
2022/11/01 01:10:14;;;;;;;6.70;4.40;;;11.40;99.90;;;;;;5051783;28;20673;-69
2022/11/01 01:12:41;;;;;;;5.13;4.40;;;11.40;99.90;;;;;;5051480;28;20291;-69
2022/11/01 01:15:09;;;;;;;5.85;4.80;;;11.40;99.90;;;;;;5051766;28;20221;-69
2022/11/01 01:17:37;;;;;;;8.63;6.03;;;11.40;99.90;;;;;;5051767;28;20202;-69
2022/11/01 01:20:04;;;;;;;8.25;4.82;;;11.40;99.90;;;;;;5051737;28;20201;-69
2022/11/01 01:22:31;;;;;;;7.18;5.00;;;11.40;99.90;;;;;;5050945;28;20305;-69
2022/11/01 01:24:58;;;;;;;7.90;4.93;;;11.40;99.90;;;;;;5051637;28;20727;-69
2022/11/01 01:27:25;;;;;;;5.32;4.82;;;11.40;99.90;;;;;;5051519;28;20355;-69
2022/11/01 01:29:52;;;;;;;7.25;6.55;;;11.40;99.90;;;;;;5051741;28;20212;-69
2022/11/01 01:32:21;;;;;;;4.63;4.18;;;11.40;99.90;;;;;;5050692;28;20205;-69
2022/11/01 01:34:49;;;;;;;6.60;4.88;;;11.40;99.90;;;;;;5051493;28;20747;-69
2022/11/01 01:37:16;;;;;;;5.60;4.38;;;11.40;99.90;;;;;;5051197;28;20202;-69
2022/11/01 01:39:43;;;;;;;8.75;4.50;;;11.40;99.90;;;;;;5051282;28;20210;-69
2022/11/01 01:42:17;;;;;;;5.22;4.40;;;11.30;99.90;;;;;;5050803;28;20217;-69
2022/11/01 01:45:20;;;;;;;5.30;4.55;;;11.30;99.90;;;;;;5051367;28;20225;-69
2022/11/01 01:47:51;;;;;;;6.07;4.68;;;11.30;99.90;;;;;;5028720;28;20270;-69
2022/11/01 01:50:27;;;;;;;7.38;5.25;;;11.20;99.90;;;;;;5051070;28;20205;-69
2022/11/01 01:52:58;;;;;;;8.75;4.32;;;11.20;99.90;;;;;;5050729;28;20205;-69
2022/11/01 01:55:29;;;;;;;4.75;4.28;;;11.20;99.90;;;;;;5050979;28;20236;-69
2022/11/01 01:57:57;;;;;;;7.05;4.72;;;11.20;99.90;;;;;;5051171;28;20204;-69
2022/11/01 02:00:24;;;;;;;7.20;4.35;;;11.20;99.90;;;;;;5050569;28;20256;-69
2022/11/01 02:02:51;;;;;;;4.75;4.25;;;11.20;99.90;;;;;;5050441;28;20208;-69
2022/11/01 02:05:26;;;;;;;8.32;4.60;;;11.20;99.90;;;;;;5050451;28;20226;-69
2022/11/01 02:07:54;;;;;;;9.00;4.43;;;11.20;99.90;;;;;;5050488;28;20241;-69
2022/11/01 02:10:21;;;;;;;4.60;4.03;;;11.20;99.90;;;;;;5050631;28;20586;-69
2022/11/01 02:12:49;;;;;;;5.30;4.80;;;11.20;99.90;;;;;;5050237;28;20205;-69
2022/11/01 02:15:17;;;;;;;4.13;3.63;;;11.20;99.90;;;;;;5050557;28;20225;-69
2022/11/01 02:17:54;;;;;;;6.93;3.95;;;11.20;99.90;;;;;;5050890;28;20610;-69
2022/11/01 02:20:43;;;;;;;6.72;3.80;;;11.20;99.90;;;;;;5050373;28;20205;-69
2022/11/01 02:23:46;;;;;;;4.05;3.50;;;11.30;99.90;;;;;;5050056;28;20209;-69
2022/11/01 02:26:36;;;;;;;5.35;3.40;;;11.30;99.90;;;;;;5050577;28;20213;-69
2022/11/01 02:29:14;;;;;;;3.85;3.55;;;11.40;99.90;;;;;;5050800;28;20251;-69
2022/11/01 02:32:10;;;;;;;5.80;3.47;;;11.40;99.90;;;;;;5050115;28;20213;-69
2022/11/01 02:34:43;;;;;;;5.25;3.00;;;11.50;99.90;;;;;;5050496;28;20628;-69
2022/11/01 02:37:15;;;;;;;3.88;3.17;;;11.50;99.90;;;;;;5050989;28;20566;-68
2022/11/01 02:39:48;;;;;;;7.45;3.47;;;11.50;99.90;;;;;;5050647;28;20205;-70
2022/11/01 02:42:20;;;;;;;4.65;3.25;;;11.60;99.90;;;;;;5050015;28;20205;-70
2022/11/01 02:44:54;;;;;;;4.85;4.15;;;11.60;99.90;;;;;;5052922;28;20747;-69
2022/11/01 02:47:25;;;;;;;8.80;4.10;;;11.60;99.90;;;;;;5054632;28;20225;-70
2022/11/01 02:49:55;;;;;;;5.63;3.83;;;11.60;99.90;;;;;;5054846;28;20205;-69
2022/11/01 02:52:24;;;;;;;5.53;4.38;;;11.60;99.90;;;;;;5053934;28;20197;-69
2022/11/01 02:54:53;;;;;;;6.15;3.85;;;11.70;99.90;;;;;;5054737;28;20579;-69
2022/11/01 02:57:33;;;;;;;8.30;4.60;;;11.80;99.90;;;;;;5054384;28;20205;-69
2022/11/01 03:00:03;;;;;;;5.87;4.10;;;11.90;99.90;;;;;;5054488;28;20203;-69
2022/11/01 03:02:39;;;;;;;7.73;3.90;;;12.00;99.90;;;;;;5053680;28;21274;-69
2022/11/01 03:05:10;;;;;;;5.33;3.60;;;12.10;99.90;;;;;;5054260;28;20479;-70
2022/11/01 03:07:38;;;;;;;9.20;3.93;;;12.10;99.90;;;;;;5054127;28;20484;-70
2022/11/01 03:10:06;;;;;;;4.40;3.40;;;12.20;99.90;;;;;;5054187;28;20456;-69
2022/11/01 03:12:37;;;;;;;4.07;3.55;;;12.20;99.90;;;;;;5053619;28;20206;-69
2022/11/01 03:15:19;;;;;;;4.40;3.70;;;12.30;99.90;;;;;;5054218;28;20611;-67
2022/11/01 03:17:52;;;;;;;4.75;3.92;;;12.40;99.90;;;;;;5054364;28;20206;-69
2022/11/01 03:20:24;;;;;;;5.80;3.83;;;12.40;99.90;;;;;;5053960;28;20212;-69
2022/11/01 03:22:56;;;;;;;3.57;3.23;;;12.40;99.90;;;;;;5053630;28;20464;-69
2022/11/01 03:25:38;;;;;;;6.97;3.58;;;12.50;99.90;;;;;;5053909;28;20574;-69
2022/11/01 03:28:11;;;;;;;5.57;3.47;;;12.50;99.90;;;;;;5054143;28;20221;-68
2022/11/01 03:30:41;;;;;;;3.83;2.87;;;12.40;99.90;;;;;;5053808;28;20464;-69
2022/11/01 03:33:12;;;;;;;4.00;3.20;;;12.50;99.90;;;;;;5053552;28;20459;-69
2022/11/01 03:35:42;;;;;;;5.33;4.20;;;12.50;99.90;;;;;;5053683;28;20476;-68
2022/11/01 03:38:13;;;;;;;9.07;3.43;;;12.50;99.90;;;;;;5053710;28;20495;-68
2022/11/01 03:40:45;;;;;;;4.40;3.07;;;12.50;99.90;;;;;;5053565;28;20467;-69
2022/11/01 03:43:15;;;;;;;5.60;3.90;;;12.50;99.90;;;;;;5053132;28;20467;-68
2022/11/01 03:45:42;;;;;;;8.00;3.63;;;12.60;99.90;;;;;;5053540;28;20476;-68
2022/11/01 03:48:10;;;;;;;5.33;2.83;;;12.60;99.90;;;;;;5053512;28;20480;-68
2022/11/01 03:50:39;;;;;;;3.73;3.30;;;12.80;99.90;;;;;;5053516;28;20460;-68
2022/11/01 03:53:06;;;;;;;7.27;3.30;;;12.90;99.90;;;;;;5052939;28;20460;-69
2022/11/01 03:55:32;;;;;;;5.80;2.60;;;13.00;99.90;;;;;;5053166;28;20484;-67
2022/11/01 03:58:00;;;;;;;4.43;2.97;;;13.10;99.90;;;;;;5053472;28;20451;-69
2022/11/01 04:00:28;;;;;;;3.60;2.50;;;13.20;99.90;;;;;;5053131;28;21073;-69
2022/11/01 04:02:57;;;;;;;4.63;2.60;;;13.30;99.90;;;;;;5052553;28;20455;-68
2022/11/01 04:05:27;;;;;;;5.97;2.90;;;13.40;99.90;;;;;;5053040;28;20483;-68
2022/11/01 04:07:54;;;;;;;3.20;2.77;;;13.50;99.90;;;;;;5053085;28;21011;-69
2022/11/01 04:10:22;;;;;;;3.57;2.80;;;13.60;99.90;;;;;;5052864;28;20943;-69
2022/11/01 04:12:50;;;;;;;6.03;2.73;;;13.70;99.90;;;;;;5052509;28;20456;-69
2022/11/01 04:20:51;;;;;;;4.80;2.90;;;13.90;99.90;;;;;;5052736;28;20447;-69
2022/11/01 04:23:18;;;;;;;3.60;2.20;;;14.00;99.90;;;;;;5052125;28;20467;-68
2022/11/01 04:25:46;;;;;;;3.70;2.80;;;14.10;99.90;;;;;;5052225;28;20483;-68
2022/11/01 04:28:13;;;;;;;4.87;3.23;;;14.20;99.90;;;;;;5052189;28;20502;-68
2022/11/01 04:30:40;;;;;;;3.17;2.47;;;14.30;99.90;;;;;;5052861;28;20843;-68
2022/11/01 04:33:06;;;;;;;2.70;2.47;;;14.30;99.90;;;;;;5052229;28;20456;-68
2022/11/01 04:35:35;;;;;;;4.80;2.80;;;14.40;99.90;;;;;;5052516;28;20855;-68
2022/11/01 04:38:03;;;;;;;4.40;2.57;;;14.40;99.90;;;;;;5052457;28;20456;-68
2022/11/01 04:40:31;;;;;;;5.33;2.03;;;14.40;99.90;;;;;;5051523;28;20468;-68
2022/11/01 04:42:58;;;;;;;3.87;2.67;;;14.40;99.90;;;;;;5051464;28;20456;-68
2022/11/01 04:45:25;;;;;;;2.67;2.30;;;14.40;99.90;;;;;;5052034;28;20476;-68
2022/11/01 04:48:01;;;;;;;3.00;2.30;;;14.40;99.90;;;;;;5052247;28;20483;-68
2022/11/01 04:50:28;;;;;;;4.73;3.20;;;14.40;99.90;;;;;;5082414;22;20487;-94
2022/11/01 04:52:55;;;;;;;3.70;2.30;;;14.40;99.90;;;;;;5066920;28;20456;-94
2022/11/01 04:55:23;;;;;;;4.00;2.47;;;14.40;99.90;;;;;;5059087;28;20512;-93
2022/11/01 04:57:50;;;;;;;3.10;2.23;;;14.40;99.90;;;;;;5059070;28;20472;-95
2022/11/01 05:00:17;;;;;;;3.70;2.53;;;14.40;99.90;;;;;;5058779;28;20492;-94
2022/11/01 05:02:44;;;;;;;2.80;2.17;;;14.50;99.90;;;;;;5058722;28;20449;-94
2022/11/01 05:05:19;;;;;;;5.67;2.57;;;14.50;99.90;;;;;;5058843;28;20465;-93
2022/11/01 05:07:46;;;;;;;2.70;2.20;;;14.50;99.90;;;;;;5058038;28;20469;-94
2022/11/01 05:10:13;;;;;;;3.37;2.07;;;14.50;99.90;;;;;;5058426;28;20453;-94
2022/11/01 05:12:41;;;;;;;4.40;2.20;;;14.50;99.90;;;;;;5058429;28;20461;-94
2022/11/01 05:15:09;;;;;;;4.20;2.43;;;14.60;99.90;;;;;;5058544;28;20441;-94
2022/11/01 05:17:40;;;;;;;3.47;2.30;;;14.50;99.90;;;;;;5058580;28;20439;-93
2022/11/01 05:20:08;;;;;;;2.93;2.27;;;14.50;99.90;;;;;;5058264;28;20541;-94
2022/11/01 05:22:35;;;;;;;3.40;1.90;;;14.50;99.90;;;;;;5058333;28;20437;-95
2022/11/01 05:25:02;;;;;;;3.20;1.73;;;14.50;99.90;;;;;;5058389;28;20453;-94
2022/11/01 05:27:29;;;;;;;2.33;1.90;;;14.50;99.90;;;;;;5058498;28;20452;-94
2022/11/01 05:29:57;;;;;;;3.00;2.10;;;14.60;99.90;;;;;;5058301;28;20469;-94
2022/11/01 05:32:25;;;;;;;3.37;1.77;;;14.60;99.90;;;;;;5058144;28;20464;-94
2022/11/01 05:35:05;;;;;;;2.00;1.80;;;14.60;99.90;;;;;;5058267;28;20451;-95
2022/11/01 05:37:34;;;;;;;2.93;1.97;;;14.60;99.90;;;;;;5054752;28;20452;-93
2022/11/01 05:40:07;;;;;;;2.07;1.53;;;14.60;99.90;;;;;;5057989;28;20457;-93
2022/11/01 05:42:34;;;;;;;3.90;1.90;;;14.70;99.90;;;;;;5094074;22;20899;-67
2022/11/01 05:45:02;;;;;;;2.43;1.57;;;14.70;99.90;;;;;;5010837;28;20476;-67
2022/11/01 05:47:29;;;;;;;2.07;1.57;;;14.70;99.90;;;;;;5011278;28;20453;-67
2022/11/01 05:49:56;;;;;;;2.17;1.90;;;14.70;99.90;;;;;;5011230;28;20536;-68
2022/11/01 05:52:22;;;;;;;2.23;1.40;;;14.60;99.90;;;;;;5010654;28;20470;-67
2022/11/01 05:54:49;;;;;;;2.53;1.80;;;14.60;99.90;;;;;;5011321;28;20477;-67
2022/11/01 05:57:16;;;;;;;1.63;1.47;;;14.60;99.90;;;;;;5010473;28;20461;-67
2022/11/01 05:59:42;;;;;;;2.47;1.97;;;14.50;99.90;;;;;;5010841;28;20462;-67
2022/11/01 06:02:10;;;;;;;1.70;1.60;;;14.50;99.90;;;;;;5010316;28;20540;-68
2022/11/01 06:04:37;;;;;;;1.20;1.10;;;14.40;99.90;;;;;;5010769;28;20985;-67
2022/11/01 06:07:04;;;;;;;1.37;1.27;;;14.40;99.90;;;;;;5010853;28;20464;-67
2022/11/01 06:09:31;;;;;;;2.07;1.50;;;14.40;99.90;;;;;;5010521;28;20504;-67
2022/11/01 06:11:57;;;;;;;1.30;1.20;;;14.40;99.90;;;;;;5010696;28;20462;-68
2022/11/01 06:14:24;;;;;;;1.50;1.23;;;14.40;99.90;;;;;;5010974;28;20484;-66
2022/11/01 06:16:51;;;;;;;1.33;1.20;;;14.40;99.90;;;;;;5011324;28;20465;-67
2022/11/01 06:19:19;;;;;;;1.23;1.10;;;14.40;99.90;;;;;;5010095;28;20477;-68
2022/11/01 06:21:46;;;;;;;1.20;1.10;;;14.40;99.90;;;;;;5010580;28;21008;-68
2022/11/01 06:24:13;;;;;;;1.47;1.20;;;14.40;99.90;;;;;;5010867;28;20850;-66
2022/11/01 06:26:40;;;;;;;1.50;1.20;;;14.40;99.90;;;;;;5010986;28;20458;-68
2022/11/01 06:29:06;;;;;;;1.80;1.40;;;14.30;99.90;;;;;;5010157;28;20454;-67
2022/11/01 06:31:33;;;;;;;1.17;0.97;;;14.30;99.90;;;;;;5010186;28;20221;-68
2022/11/01 06:34:00;;;;;;;1.73;1.20;;;14.30;99.90;;;;;;5010530;28;20485;-68
2022/11/01 06:36:28;;;;;;;3.00;1.20;;;14.30;99.90;;;;;;5010385;28;20458;-68
2022/11/01 06:38:55;;;;;;;1.40;1.13;;;14.20;99.90;;;;;;5010818;28;20461;-68
2022/11/01 06:41:22;;;;;;;1.20;1.00;;;14.20;99.90;;;;;;5010142;28;20472;-68
2022/11/01 06:43:48;;;;;;;4.03;1.30;;;14.20;99.90;;;;;;5010670;28;20469;-67
2022/11/01 06:46:15;;;;;;;1.60;1.40;;;14.10;99.90;;;;;;5010506;28;20894;-67
2022/11/01 06:48:42;;;;;;;1.13;1.03;;;14.10;99.90;;;;;;5010538;28;20486;-68
2022/11/01 06:51:09;;;;;;;1.67;1.57;;;14.10;99.90;;;;;;5010459;28;20986;-67
2022/11/01 06:53:37;;;;;;;3.63;1.83;;;14.10;99.90;;;;;;5010336;28;20473;-67
2022/11/01 06:56:04;;;;;;;1.67;1.50;;;14.10;99.90;;;;;;5010921;28;20481;-67
2022/11/01 06:58:32;;;;;;;1.90;1.27;;;14.10;99.90;;;;;;5010453;28;20460;-66
2022/11/01 07:01:01;;;;;;;5.13;1.40;;;14.10;99.90;;;;;;5010713;28;20469;-67
2022/11/01 07:03:27;;;;;;;3.03;1.13;;;14.10;99.90;;;;;;5010167;28;20807;-68
2022/11/01 07:05:54;;;;;;;1.70;1.60;;;14.10;99.90;;;;;;5010856;28;20484;-67
2022/11/01 07:08:21;;;;;;;1.00;0.90;;;14.10;99.90;;;;;;5010770;28;20466;-67
2022/11/01 07:10:50;;;;;;;3.10;1.50;;;14.10;99.90;;;;;;5010701;28;20468;-68
2022/11/01 07:13:17;;;;;;;1.70;1.60;;;14.10;99.90;;;;;;5010002;28;20480;-68
2022/11/01 07:15:44;;;;;;;1.50;1.30;;;14.10;99.90;;;;;;5010301;28;20493;-68
2022/11/01 07:18:10;;;;;;;1.30;1.10;;;14.10;99.90;;;;;;5010624;28;20457;-68
2022/11/01 07:20:41;;;;;;;1.80;1.10;;;14.20;99.90;;;;;;5010197;28;20465;-68
2022/11/01 07:23:10;;;;;;;1.00;0.90;;;14.20;99.90;;;;;;5009772;28;20462;-67
2022/11/01 07:25:37;;;;;;;1.10;0.90;;;14.20;99.90;;;;;;5009917;28;20473;-67
2022/11/01 07:28:05;;;;;;;1.33;1.00;;;14.20;99.90;;;;;;5010580;28;20462;-67
2022/11/01 07:30:32;;;;;;;1.50;0.90;;;14.20;99.90;;;;;;5005460;28;20858;-68
2022/11/01 07:33:01;;;;;;;1.10;0.90;;;14.20;99.90;;;;;;5012679;28;20454;-68
2022/11/01 07:35:28;;;;;;;1.00;0.90;;;14.20;99.90;;;;;;5013842;28;20481;-68
2022/11/01 07:37:57;;;;;;;1.20;1.00;;;14.20;99.90;;;;;;5013424;28;20469;-67
2022/11/01 07:40:26;;;;;;;1.57;1.00;;;14.20;99.90;;;;;;5013255;28;20461;-67
2022/11/01 07:42:54;;;;;;;1.00;0.80;;;14.20;99.90;;;;;;5012593;28;20480;-68
2022/11/01 07:45:23;;;;;;;1.30;1.13;;;14.20;99.90;;;;;;5013200;28;20488;-67
2022/11/01 07:47:50;;;;;;;1.13;1.00;;;14.20;99.90;;;;;;5013241;28;20458;-68
2022/11/01 07:50:16;;;;;;;1.07;0.97;;;14.30;99.90;;;;;;5012932;28;20513;-67
2022/11/01 07:52:44;;;;;;;1.00;0.90;;;14.30;99.90;;;;;;5011826;28;20480;-68
2022/11/01 07:55:10;;;;;;;1.33;0.90;;;14.30;99.90;;;;;;5012796;28;20896;-68
2022/11/01 07:57:38;;;;;;;1.30;1.10;;;14.30;99.90;;;;;;5012365;28;20458;-67
2022/11/01 08:00:06;;;;;;;1.10;1.00;;;14.40;99.90;;;;;;5012516;28;20454;-68
2022/11/01 08:02:35;;;;;;;1.13;0.90;;;14.50;99.90;;;;;;5012186;28;20462;-67
2022/11/01 08:05:02;;;;;;;1.27;0.93;;;14.50;99.90;;;;;;5012189;28;20481;-68
2022/11/01 08:07:29;;;;;;;2.30;1.13;;;14.60;99.90;;;;;;5011628;28;20462;-68
2022/11/01 08:09:55;;;;;;;1.77;1.10;;;14.60;99.90;;;;;;5012724;28;20486;-68
2022/11/01 08:12:22;;;;;;;1.10;1.00;;;14.60;99.90;;;;;;5011900;28;20458;-68
2022/11/01 08:14:49;;;;;;;1.17;1.07;;;14.70;99.90;;;;;;5012163;28;20482;-68
2022/11/01 08:17:16;;;;;;;1.07;0.90;;;14.80;99.90;;;;;;5012478;28;20516;-67
2022/11/01 08:19:44;;;;;;;1.23;1.00;;;14.80;99.90;;;;;;5011997;28;20457;-68
2022/11/01 08:22:11;;;;;;;1.30;0.80;;;14.90;99.90;;;;;;5011546;28;20484;-67
2022/11/01 08:24:37;;;;;;;1.60;0.90;;;14.90;99.90;;;;;;5008383;28;20988;-68
2022/11/01 08:27:04;;;;;;;1.20;1.10;;;15.00;99.90;;;;;;5012113;28;20465;-68
2022/11/01 08:29:31;;;;;;;1.10;0.93;;;15.00;99.90;;;;;;5011707;28;20493;-68
2022/11/01 08:31:58;;;;;;;1.33;1.07;;;15.00;99.90;;;;;;5011529;28;21123;-68
2022/11/01 08:34:24;;;;;;;1.00;0.87;;;15.10;99.90;;;;;;5011867;28;20859;-68
2022/11/01 08:36:53;;;;;;;1.67;1.57;;;15.10;99.90;;;;;;5011448;28;20561;-67
2022/11/01 08:39:19;;;;;;;1.07;0.93;;;15.10;99.90;;;;;;5003767;28;20466;-68
2022/11/01 08:41:48;;;;;;;1.40;1.10;;;15.10;99.90;;;;;;5005090;28;21242;-67
2022/11/01 08:44:16;;;;;;;1.23;1.10;;;15.20;99.90;;;;;;5010123;28;20725;-68
2022/11/01 08:46:43;;;;;;;1.13;1.00;;;15.20;99.90;;;;;;5007442;28;20541;-67
2022/11/01 08:49:10;;;;;;;1.63;1.10;;;15.30;99.90;;;;;;4990894;28;20486;-67
2022/11/01 08:51:37;;;;;;;1.30;1.00;;;15.40;99.90;;;;;;4990593;28;20459;-67
2022/11/01 08:54:07;;;;;;;1.23;1.00;;;15.40;99.90;;;;;;4992882;28;20481;-67
2022/11/01 08:56:34;;;;;;;1.13;0.90;;;15.40;99.90;;;;;;4992384;28;20821;-68
2022/11/01 08:59:00;;;;;;;1.57;1.13;;;15.50;99.90;;;;;;4992705;28;20943;-67
2022/11/01 09:01:27;;;;;;;1.00;0.80;;;15.50;99.90;;;;;;4991859;28;20466;-67
2022/11/01 09:03:56;;;;;;;1.03;0.80;;;15.50;99.90;;;;;;4992714;28;20466;-68
2022/11/01 09:06:23;;;;;;;1.07;0.77;;;15.50;99.90;;;;;;4992211;28;20821;-67
2022/11/01 09:08:50;;;;;;;1.87;1.00;;;15.50;99.90;;;;;;4991856;28;20470;-68
2022/11/01 09:11:18;;;;;;;0.93;0.83;;;15.50;99.90;;;;;;4991980;28;20494;-67
2022/11/01 09:13:45;;;;;;;1.00;0.90;;;15.50;99.90;;;;;;4992381;28;20458;-67
2022/11/01 09:16:12;;;;;;;1.10;1.00;;;15.50;99.90;;;;;;4992361;28;20868;-68
2022/11/01 09:18:38;;;;;;;1.43;1.03;;;15.40;99.90;;;;;;4997731;28;20457;-67
2022/11/01 09:21:06;;;;;;;1.07;0.83;;;15.40;99.90;;;;;;4990464;28;20489;-67
2022/11/01 09:23:34;;;;;;;1.10;0.90;;;15.40;99.90;;;;;;4990720;28;20469;-67
2022/11/01 09:26:06;;;;;;;0.80;0.80;;;15.40;99.90;;;;;;4991213;28;20482;-67
2022/11/01 09:28:34;;;;;;;1.20;1.10;;;15.40;99.90;;;;;;4990813;28;20992;-68
2022/11/01 09:31:02;;;;;;;1.23;1.00;;;15.50;99.90;;;;;;4991042;28;20486;-66
2022/11/01 09:33:29;;;;;;;1.30;0.90;;;15.50;99.90;;;;;;4989155;28;20466;-67
2022/11/01 09:35:56;;;;;;;2.00;1.00;;;15.60;99.90;;;;;;4991133;28;20474;-68
2022/11/01 09:38:22;;;;;;;0.80;0.70;;;15.70;99.90;;;;;;4990309;28;21296;-67
2022/11/01 09:40:56;;;;;;;1.30;0.90;;;15.90;99.90;;;;;;4989760;28;20897;-67
2022/11/01 09:43:25;;;;;;;1.10;1.00;;;16.10;99.90;;;;;;4989571;28;20462;-67
2022/11/01 09:45:57;;;;;;;0.90;0.70;;;16.30;99.90;;;;;;4984044;28;20506;-68
2022/11/01 09:48:25;;;;;;;0.90;0.77;;;16.70;99.90;;;;;;4990280;28;20517;-68
2022/11/01 09:50:52;;;;;;;1.13;1.03;;;17.50;99.90;;;;;;4990543;28;21021;-68
2022/11/01 09:53:23;;;;;;;0.90;0.80;;;18.30;99.90;;;;;;4989877;28;20467;-67
2022/11/01 09:55:55;;;;;;;0.90;0.70;;;19.10;99.90;;;;;;4990761;28;20482;-68
2022/11/01 09:58:32;;;;;;;0.90;0.80;;;19.60;99.90;;;;;;4990275;28;20462;-67
2022/11/01 10:01:14;;;;;;;1.00;0.90;;;20.00;99.90;;;;;;4990884;28;20467;-68
2022/11/01 10:03:55;;;;;;;1.27;1.00;;;20.00;99.90;;;;;;4990907;28;20980;-68
2022/11/01 10:06:27;;;;;;;3.13;1.10;;;19.90;99.90;;;;;;4991238;28;20458;-68
2022/11/01 10:09:05;;;;;;;1.13;1.03;;;19.90;99.90;;;;;;4991144;28;20869;-67
2022/11/01 10:11:43;;;;;;;1.10;1.00;;;19.90;99.90;;;;;;4990495;28;20458;-68
2022/11/01 10:14:20;;;;;;;1.00;0.90;;;19.80;99.90;;;;;;4991122;28;21147;-67
2022/11/01 10:16:57;;;;;;;2.20;1.20;;;19.60;99.90;;;;;;4998675;28;20847;-68
2022/11/01 10:19:29;;;;;;;1.00;0.90;;;19.40;99.90;;;;;;5010281;28;20464;-67
2022/11/01 10:22:00;;;;;;;1.13;0.90;;;19.20;99.90;;;;;;5010058;28;20810;-68
2022/11/01 10:24:33;;;;;;;1.20;1.10;;;19.00;99.90;;;;;;5010393;28;20686;-67
2022/11/01 10:27:04;;;;;;;1.10;1.00;;;19.00;99.90;;;;;;5010532;28;20871;-69
2022/11/01 10:29:40;;;;;;;1.23;1.03;;;19.00;99.90;;;;;;5003026;28;20485;-67
2022/11/01 10:32:20;;;;;;;1.83;1.30;;;19.00;99.90;;;;;;5007770;28;20822;-68
2022/11/01 10:34:47;;;;;;;1.10;1.00;;;19.00;99.90;;;;;;5001683;28;20491;-67
2022/11/01 10:37:23;;;;;;;0.93;0.83;;;18.90;99.90;;;;;;4965542;28;20490;-67
2022/11/01 10:39:55;;;;;;;0.90;0.80;;;18.70;99.90;;;;;;4982050;28;20469;-67
2022/11/01 10:42:22;;;;;;;1.10;1.00;;;18.60;99.90;;;;;;4977776;28;21093;-67
2022/11/01 10:44:54;;;;;;;1.13;1.00;;;18.60;99.90;;;;;;4990082;28;21010;-68
2022/11/01 10:47:24;;;;;;;1.20;1.00;;;18.60;99.90;;;;;;4990118;28;20589;-68
2022/11/01 10:49:54;;;;;;;1.67;1.00;;;18.50;99.90;;;;;;4990341;28;20489;-68
2022/11/01 10:52:26;;;;;;;2.57;1.30;;;18.30;99.90;;;;;;4989699;28;20462;-68
2022/11/01 10:54:53;;;;;;;1.43;0.97;;;18.10;99.90;;;;;;4991052;28;20483;-68
2022/11/01 10:57:29;;;;;;;1.47;1.10;;;18.00;99.90;;;;;;4991077;28;20467;-68
2022/11/01 10:59:57;;;;;;;0.90;0.70;;;17.90;99.90;;;;;;4990465;28;20996;-68
2022/11/01 11:02:34;;;;;;;2.70;1.20;;;17.90;99.90;;;;;;4983199;28;20464;-68
2022/11/01 11:05:01;;;;;;;3.00;1.00;;;17.80;99.90;;;;;;4970842;28;20542;-67
2022/11/01 11:07:31;;;;;;;1.20;0.90;;;17.70;99.90;;;;;;4982825;28;20542;-68
2022/11/01 11:09:58;;;;;;;1.23;1.10;;;17.70;99.90;;;;;;4993164;28;20478;-67
2022/11/01 11:12:26;;;;;;;1.10;1.00;;;17.60;99.90;;;;;;4992629;28;20473;-67
2022/11/01 11:14:58;;;;;;;1.77;1.10;;;17.60;99.90;;;;;;4994059;28;20505;-68
2022/11/01 11:17:31;;;;;;;1.10;0.97;;;17.50;99.90;;;;;;4992731;28;20485;-67
2022/11/01 11:20:03;;;;;;;2.53;1.13;;;17.50;99.90;;;;;;5011301;28;20856;-68
2022/11/01 11:22:31;;;;;;;2.40;1.20;;;17.40;99.90;;;;;;5012197;28;20497;-67
2022/11/01 11:24:58;;;;;;;3.47;1.40;;;17.40;99.90;;;;;;5012538;28;20486;-66
2022/11/01 11:27:27;;;;;;;1.13;0.90;;;17.60;99.90;;;;;;5012993;28;20976;-67
2022/11/01 11:29:57;;;;;;;1.97;1.00;;;17.80;99.90;;;;;;5012500;28;20485;-67
2022/11/01 11:32:28;;;;;;;1.63;0.90;;;18.00;99.90;;;;;;5011845;28;20464;-67
2022/11/01 11:34:57;;;;;;;1.10;0.80;;;18.20;99.90;;;;;;5013169;28;20555;-68
2022/11/01 11:37:27;;;;;;;3.00;1.10;;;18.30;99.90;;;;;;5012248;28;20457;-67
2022/11/01 11:40:06;;;;;;;1.53;1.10;;;18.30;99.90;;;;;;5010404;28;20453;-67
2022/11/01 11:42:33;;;;;;;2.27;1.23;;;18.20;99.90;;;;;;5010518;28;21277;-67
2022/11/01 11:45:16;;;;;;;2.40;1.23;;;18.00;99.90;;;;;;5012665;28;20504;-67
2022/11/01 11:47:45;;;;;;;1.80;1.30;;;17.80;99.90;;;;;;5012256;28;20813;-67
2022/11/01 11:50:33;;;;;;;3.53;1.70;;;17.70;99.90;;;;;;5012089;28;20484;-67
2022/11/01 11:53:05;;;;;;;2.47;1.40;;;17.60;99.90;;;;;;5011937;28;20980;-68
2022/11/01 11:55:38;;;;;;;2.70;1.50;;;17.50;99.90;;;;;;5011793;28;20568;-68
2022/11/01 11:58:14;;;;;;;2.73;1.37;;;17.40;99.90;;;;;;5012708;28;20466;-68
2022/11/01 12:00:45;;;;;;;1.20;1.10;;;17.40;99.90;;;;;;5012359;28;20853;-67
2022/11/01 12:03:16;;;;;;;2.93;1.33;;;17.40;99.90;;;;;;5011559;28;20464;-67
2022/11/01 12:05:54;;;;;;;2.70;1.20;;;17.40;99.90;;;;;;5012226;28;21021;-67
2022/11/01 12:08:41;;;;;;;2.40;1.70;;;17.30;99.90;;;;;;5011611;28;20550;-68
2022/11/01 12:11:07;;;;;;;2.40;1.13;;;17.40;99.90;;;;;;5009444;28;20572;-68
2022/11/01 12:13:36;;;;;;;2.17;1.30;;;17.30;99.90;;;;;;5011417;28;20458;-67
2022/11/01 12:16:19;;;;;;;1.77;1.10;;;17.30;99.90;;;;;;5010791;28;20488;-68
2022/11/01 12:18:50;;;;;;;4.20;1.07;;;17.20;99.90;;;;;;5011663;28;20493;-67
2022/11/01 12:21:25;;;;;;;1.60;1.10;;;17.20;99.90;;;;;;5010915;28;20841;-68
2022/11/01 12:23:56;;;;;;;1.73;1.20;;;17.10;99.90;;;;;;5011586;28;20539;-66
2022/11/01 12:26:24;;;;;;;1.53;0.80;;;17.10;99.90;;;;;;5011954;28;20468;-67
2022/11/01 12:29:00;;;;;;;1.57;1.07;;;17.10;99.90;;;;;;5011755;28;20942;-67
2022/11/01 12:31:27;;;;;;;1.20;1.10;;;17.20;99.90;;;;;;5010800;28;21192;-67
2022/11/01 12:34:02;;;;;;;1.60;1.13;;;17.20;99.90;;;;;;5011275;28;20458;-68
2022/11/01 12:36:33;;;;;;;1.33;1.07;;;17.30;99.90;;;;;;5011439;28;20468;-67
2022/11/01 12:39:07;;;;;;;1.63;1.13;;;17.70;99.90;;;;;;5011455;28;20461;-68
2022/11/01 12:41:41;;;;;;;1.53;1.00;;;18.30;99.90;;;;;;5010847;28;20462;-67
2022/11/01 12:44:27;;;;;;;2.30;1.23;;;18.80;99.90;;;;;;5011399;28;20474;-67
2022/11/01 12:47:00;;;;;;;1.47;1.37;;;19.00;99.90;;;;;;5009405;28;20576;-66
2022/11/01 12:49:32;;;;;;;0.90;0.80;;;19.10;99.90;;;;;;5010898;28;20461;-67
2022/11/01 12:52:04;;;;;;;2.03;1.10;;;19.00;99.90;;;;;;5010625;28;20852;-67
2022/11/01 12:54:35;;;;;;;1.27;1.10;;;19.00;99.90;;;;;;5010754;28;20474;-67
2022/11/01 12:57:02;;;;;;;3.10;1.40;;;19.20;99.90;;;;;;5011075;28;20458;-67
2022/11/01 12:59:33;;;;;;;1.10;0.97;;;19.40;99.90;;;;;;5010661;28;20462;-67
2022/11/01 13:02:10;;;;;;;1.20;1.07;;;19.60;99.90;;;;;;5010447;28;20455;-67
2022/11/01 13:04:45;;;;;;;1.30;1.10;;;19.60;99.90;;;;;;5010635;28;20486;-67
2022/11/01 13:13:48;;;;;;;1.20;0.90;;;19.10;99.90;;;;;;5032072;28;20442;-94